Time;durP1;ratioP1;P1;durP2;ratioP2;P2;SDS_P1;SDS_P2;PMS_P1;PMS_P2;Temp;Humidity;BMP_temperature;BMP_pressure;BME280_temperature;BME280_humidity;BME280_pressure;Samples;Min_cycle;Max_cycle;Signal;HPM_P1;HPM_P2
2024/04/04 00:02:15;;;;;;;;;;;;;;;9.34;100.00;96166.31;5064669;28;19935;-82
2024/04/04 00:04:41;;;;;;;;;;;;;;;9.34;100.00;96166.31;5064053;28;19939;-82
2024/04/04 00:07:07;;;;;;;;;;;;;;;9.34;100.00;96167.16;5063972;28;19976;-81
2024/04/04 00:09:32;;;;;;;;;;;;;;;9.34;100.00;96172.38;5064126;28;19945;-82
2024/04/04 00:11:58;;;;;;;;;;;;;;;9.37;100.00;96186.06;5064063;28;20217;-79
2024/04/04 00:14:24;;;;;;;;;;;;;;;9.35;100.00;96176.59;5046148;28;19995;-73
2024/04/04 00:16:50;;;;;;;;;;;;;;;9.34;100.00;96177.63;5064740;28;19948;-81
2024/04/04 00:19:16;;;;;;;;;;;;;;;9.36;100.00;96177.38;5029499;28;19968;-82
2024/04/04 00:21:41;;;;;;;;;;;;;;;9.35;100.00;96168.75;5046193;28;19943;-81
2024/04/04 00:24:08;;;;;;;;;;;;;;;9.35;100.00;96167.94;5063601;28;20263;-82
2024/04/04 00:26:34;;;;;;;;;;;;;;;9.35;100.00;96176.59;5046757;28;20102;-81
2024/04/04 00:29:00;;;;;;;;;;;;;;;9.36;100.00;96185.22;5064582;28;19952;-82
2024/04/04 00:31:26;;;;;;;;;;;;;;;9.37;100.00;96180.81;5064323;28;19942;-68
2024/04/04 00:33:52;;;;;;;;;;;;;;;9.37;100.00;96186.06;5046792;28;20127;-81
2024/04/04 00:36:18;;;;;;;;;;;;;;;9.38;100.00;96177.97;5063685;28;20233;-81
2024/04/04 00:38:44;;;;;;;;;;;;;;;9.41;100.00;96184.59;5064222;28;19935;-81
2024/04/04 00:41:09;;;;;;;;;;;;;;;9.41;100.00;96176.72;5063639;28;19968;-81
2024/04/04 00:43:37;;;;;;;;;;;;;;;9.42;100.00;96186.19;5046771;28;19941;-81
2024/04/04 00:46:04;;;;;;;;;;;;;;;9.42;100.00;96188.81;5064121;28;19939;-81
2024/04/04 00:48:30;;;;;;;;;;;;;;;9.42;100.00;96186.19;5063611;28;19946;-73
2024/04/04 00:50:56;;;;;;;;;;;;;;;9.42;100.00;96184.38;5063547;28;19938;-71
2024/04/04 00:53:23;;;;;;;;;;;;;;;9.42;100.00;96184.38;5063563;28;19938;-77
2024/04/04 00:55:49;;;;;;;;;;;;;;;9.41;100.00;96182.78;5065402;28;20112;-77
2024/04/04 00:58:19;;;;;;;;;;;;;;;9.39;100.00;96184.81;5067541;28;19939;-76
2024/04/04 01:00:45;;;;;;;;;;;;;;;9.37;100.00;96186.84;5068219;28;19954;-77
2024/04/04 01:03:11;;;;;;;;;;;;;;;9.34;100.00;96188.09;5067423;28;20002;-76
2024/04/04 01:05:37;;;;;;;;;;;;;;;9.34;100.00;96177.63;5049936;28;19943;-77
2024/04/04 01:08:03;;;;;;;;;;;;;;;9.34;100.00;96175.00;5067248;28;19935;-68
2024/04/04 01:10:29;;;;;;;;;;;;;;;9.35;100.00;96179.22;5050185;28;19961;-80
2024/04/04 01:12:55;;;;;;;;;;;;;;;9.37;100.00;96175.59;5067995;28;20254;-80
2024/04/04 01:15:21;;;;;;;;;;;;;;;9.37;100.00;96178.22;5067749;28;19997;-80
2024/04/04 01:17:47;;;;;;;;;;;;;;;9.35;100.00;96176.59;5067156;28;19931;-80
2024/04/04 01:20:13;;;;;;;;;;;;;;;9.35;100.00;96186.25;5049931;28;20244;-80
2024/04/04 01:22:38;;;;;;;;;;;;;;;9.32;100.00;96186.69;5067639;28;20008;-81
2024/04/04 01:25:04;;;;;;;;;;;;;;;9.33;100.00;96191.72;5066921;28;19968;-76
2024/04/04 01:27:30;;;;;;;;;;;;;;;9.33;100.00;96196.16;5049558;28;19946;-72
2024/04/04 01:29:56;;;;;;;;;;;;;;;9.33;100.00;96196.16;5067751;28;19946;-76
2024/04/04 01:32:22;;;;;;;;;;;;;;;9.34;100.00;96192.50;5067460;28;19940;-76
2024/04/04 01:34:48;;;;;;;;;;;;;;;9.34;100.00;96192.50;5067609;28;19982;-76
2024/04/04 01:37:14;;;;;;;;;;;;;;;9.36;100.00;96190.47;5066872;28;19982;-76
2024/04/04 01:39:39;;;;;;;;;;;;;;;9.35;100.00;96186.25;5066663;28;19986;-77
2024/04/04 01:42:05;;;;;;;;;;;;;;;9.35;100.00;96181.03;5067226;28;19940;-76
2024/04/04 01:44:31;;;;;;;;;;;;;;;9.38;100.00;96190.25;5066687;28;19971;-70
2024/04/04 01:46:57;;;;;;;;;;;;;;;9.40;100.00;96185.63;5049153;28;19939;-70
2024/04/04 01:49:23;;;;;;;;;;;;;;;9.40;100.00;96175.94;5049661;28;19944;-70
2024/04/04 01:51:49;;;;;;;;;;;;;;;9.42;100.00;96184.38;5067018;28;19933;-70
2024/04/04 01:54:15;;;;;;;;;;;;;;;9.41;100.00;96185.41;5066510;28;19942;-70
2024/04/04 01:56:41;;;;;;;;;;;;;;;9.43;100.00;96180.75;5066649;28;19933;-71
2024/04/04 01:59:07;;;;;;;;;;;;;;;9.41;100.00;96182.78;5066337;28;20013;-70
2024/04/04 02:01:33;;;;;;;;;;;;;;;9.41;100.00;96182.78;5066903;28;19938;-72
2024/04/04 02:03:58;;;;;;;;;;;;;;;9.40;100.00;96173.31;5048574;28;19949;-70
2024/04/04 02:06:24;;;;;;;;;;;;;;;9.39;100.00;96179.59;5048975;28;19948;-72
2024/04/04 02:08:50;;;;;;;;;;;;;;;9.36;100.00;96164.28;5047477;28;19960;-72
2024/04/04 02:11:16;;;;;;;;;;;;;;;9.37;100.00;96170.34;5048406;28;19996;-72
2024/04/04 02:13:42;;;;;;;;;;;;;;;9.35;100.00;96165.31;5048249;28;20171;-73
2024/04/04 02:16:08;;;;;;;;;;;;;;;9.34;100.00;96159.31;5031882;28;20014;-72
2024/04/04 02:18:34;;;;;;;;;;;;;;;9.33;100.00;96160.31;5065986;28;19945;-72
2024/04/04 02:21:01;;;;;;;;;;;;;;;9.31;100.00;96156.31;5048972;28;19952;-75
2024/04/04 02:23:28;;;;;;;;;;;;;;;9.29;100.00;96166.97;5047923;28;19972;-71
2024/04/04 02:25:58;;;;;;;;;;;;;;;9.28;100.00;96156.72;5066126;28;20233;-71
2024/04/04 02:28:24;;;;;;;;;;;;;;;9.23;100.00;96154.75;5047872;28;19941;-71
2024/04/04 02:30:50;;;;;;;;;;;;;;;9.20;100.00;96160.44;5065943;28;19963;-71
2024/04/04 02:33:16;;;;;;;;;;;;;;;9.17;100.00;96160.06;5065722;28;20216;-71
2024/04/04 02:35:52;;;;;;;;;;;;;;;9.12;100.00;96158.91;5065707;28;19937;-71
2024/04/04 02:38:18;;;;;;;;;;;;;;;9.10;100.00;96158.31;5065629;28;20141;-68
2024/04/04 02:40:43;;;;;;;;;;;;;;;9.08;100.00;96154.31;5048625;28;19952;-79
2024/04/04 02:43:10;;;;;;;;;;;;;;;9.07;100.00;96160.53;5065594;28;19938;-78
2024/04/04 02:45:36;;;;;;;;;;;;;;;9.03;100.00;96154.13;5065546;28;19936;-85
2024/04/04 02:48:01;;;;;;;;;;;;;;;9.01;100.00;96150.94;5066312;28;20115;-79
2024/04/04 02:50:28;;;;;;;;;;;;;;;8.98;100.00;96154.78;5065432;28;19932;-82
2024/04/04 02:52:53;;;;;;;;;;;;;;;8.98;100.00;96154.78;5047964;28;19954;-82
2024/04/04 02:55:19;;;;;;;;;;;;;;;8.95;100.00;96147.38;5047546;28;19953;-81
2024/04/04 02:57:45;;;;;;;;;;;;;;;8.94;100.00;96143.16;5066109;28;20192;-71
2024/04/04 03:00:11;;;;;;;;;;;;;;;8.97;100.00;96144.56;5065707;28;19967;-73
2024/04/04 03:02:37;;;;;;;;;;;;;;;8.96;100.00;96138.50;5065244;28;19954;-73
2024/04/04 03:05:04;;;;;;;;;;;;;;;8.98;100.00;96140.91;5065950;28;19944;-73
2024/04/04 03:07:30;;;;;;;;;;;;;;;8.99;100.00;96135.47;5065137;28;19985;-73
2024/04/04 03:09:55;;;;;;;;;;;;;;;8.99;100.00;96138.09;5064977;28;19957;-72
2024/04/04 03:12:21;;;;;;;;;;;;;;;9.01;100.00;96141.31;5065028;28;19946;-73
2024/04/04 03:14:47;;;;;;;;;;;;;;;9.01;100.00;96143.09;5064986;28;20228;-73
2024/04/04 03:17:13;;;;;;;;;;;;;;;8.99;100.00;96155.59;5064914;28;19936;-68
2024/04/04 03:19:39;;;;;;;;;;;;;;;8.96;100.00;96146.34;5064563;28;19942;-70
2024/04/04 03:22:05;;;;;;;;;;;;;;;8.94;100.00;96141.38;5047962;28;19946;-70
2024/04/04 03:24:31;;;;;;;;;;;;;;;8.95;100.00;96136.94;5064786;28;20050;-70
2024/04/04 03:26:56;;;;;;;;;;;;;;;8.97;100.00;96126.25;5064697;28;19939;-70
2024/04/04 03:29:22;;;;;;;;;;;;;;;8.98;100.00;96135.69;5065220;28;19944;-70
2024/04/04 03:31:48;;;;;;;;;;;;;;;8.98;100.00;96144.31;5064614;28;19944;-70
2024/04/04 03:34:14;;;;;;;;;;;;;;;8.97;100.00;96147.19;5064899;28;19941;-72
2024/04/04 03:36:41;;;;;;;;;;;;;;;8.94;100.00;96146.59;5065090;28;20019;-67
2024/04/04 03:39:07;;;;;;;;;;;;;;;8.95;100.00;96136.94;5064483;28;19948;-78
2024/04/04 03:41:32;;;;;;;;;;;;;;;8.97;100.00;96144.56;5065221;28;19953;-78
2024/04/04 03:43:58;;;;;;;;;;;;;;;8.97;100.00;96140.13;5064459;28;19939;-77
2024/04/04 03:46:24;;;;;;;;;;;;;;;8.97;100.00;96141.94;5064944;28;19941;-78
2024/04/04 03:48:50;;;;;;;;;;;;;;;8.96;100.00;96135.91;5064352;28;19987;-77
2024/04/04 03:51:16;;;;;;;;;;;;;;;8.94;100.00;96141.38;5064329;28;19983;-77
2024/04/04 03:53:42;;;;;;;;;;;;;;;8.93;100.00;96144.97;5064316;28;20152;-68
2024/04/04 03:56:07;;;;;;;;;;;;;;;8.91;100.00;96133.94;5064269;28;20224;-80
2024/04/04 03:58:33;;;;;;;;;;;;;;;8.91;100.00;96133.13;5046435;28;19941;-80
2024/04/04 04:00:59;;;;;;;;;;;;;;;8.88;100.00;96142.22;5029730;28;20185;-80
2024/04/04 04:03:25;;;;;;;;;;;;;;;8.86;100.00;96143.44;5064710;28;20006;-79
2024/04/04 04:05:51;;;;;;;;;;;;;;;8.82;100.00;96140.47;5064115;28;20242;-80
2024/04/04 04:08:16;;;;;;;;;;;;;;;8.80;100.00;96139.03;5064013;28;19954;-80
2024/04/04 04:10:42;;;;;;;;;;;;;;;8.77;100.00;96137.66;5064289;28;19936;-71
2024/04/04 04:13:08;;;;;;;;;;;;;;;8.74;100.00;96132.88;5063985;28;19940;-72
2024/04/04 04:15:35;;;;;;;;;;;;;;;8.72;100.00;96135.69;5064488;28;19948;-78
2024/04/04 04:18:01;;;;;;;;;;;;;;;8.71;100.00;96136.72;5064704;28;19940;-78
2024/04/04 04:23:11;;;;;;;;;;;;;;;8.69;100.00;96127.47;5064218;28;19951;-77
2024/04/04 04:25:37;;;;;;;;;;;;;;;8.66;100.00;96127.91;5064400;28;19938;-77
2024/04/04 04:28:03;;;;;;;;;;;;;;;8.63;100.00;96121.31;5046164;28;19945;-77
2024/04/04 04:30:29;;;;;;;;;;;;;;;8.61;100.00;96128.56;5063386;28;20146;-71
2024/04/04 04:32:55;;;;;;;;;;;;;;;8.59;100.00;96133.19;5063783;28;19934;-79
2024/04/04 04:35:22;;;;;;;;;;;;;;;8.59;100.00;96133.19;5046734;28;19991;-79
2024/04/04 04:37:48;;;;;;;;;;;;;;;8.59;100.00;96132.38;5064239;28;20219;-80
2024/04/04 04:40:14;;;;;;;;;;;;;;;8.57;100.00;96124.75;5045891;28;19967;-80
2024/04/04 04:42:40;;;;;;;;;;;;;;;8.57;100.00;96119.53;5046537;28;19949;-80
2024/04/04 04:45:06;;;;;;;;;;;;;;;8.56;100.00;96119.75;5063709;28;19942;-78
2024/04/04 04:47:32;;;;;;;;;;;;;;;8.53;100.00;96128.81;5063712;28;19941;-68
2024/04/04 04:49:58;;;;;;;;;;;;;;;8.54;100.00;96133.81;5046663;28;20042;-73
2024/04/04 04:52:23;;;;;;;;;;;;;;;8.53;100.00;96132.22;5046542;28;20128;-75
2024/04/04 04:54:50;;;;;;;;;;;;;;;8.54;100.00;96128.59;5046177;28;19956;-73
2024/04/04 04:57:16;;;;;;;;;;;;;;;8.56;100.00;96124.97;5063556;28;20124;-75
2024/04/04 04:59:42;;;;;;;;;;;;;;;8.51;100.00;96129.03;5063501;28;19947;-76
2024/04/04 05:02:08;;;;;;;;;;;;;;;8.49;100.00;96127.63;5064312;28;19971;-74
2024/04/04 05:04:34;;;;;;;;;;;;;;;8.49;100.00;96125.81;5063471;28;19943;-76
2024/04/04 05:06:59;;;;;;;;;;;;;;;8.56;100.00;96117.94;5064123;28;19949;-72
2024/04/04 05:09:25;;;;;;;;;;;;;;;8.65;100.00;96119.28;5063413;28;20178;-79
2024/04/04 05:11:51;;;;;;;;;;;;;;;8.77;100.00;96110.72;5046318;28;19947;-80
2024/04/04 05:14:17;;;;;;;;;;;;;;;8.88;100.00;96123.09;5063419;28;19938;-79
2024/04/04 05:16:44;;;;;;;;;;;;;;;8.97;100.00;96121.03;5063583;28;19939;-81
2024/04/04 05:19:10;;;;;;;;;;;;;;;9.03;100.00;96130.59;5064074;28;20096;-79
2024/04/04 05:21:36;;;;;;;;;;;;;;;9.08;100.00;96128.16;5063187;28;19968;-80
2024/04/04 05:24:03;;;;;;;;;;;;;;;9.13;100.00;96133.53;5063393;28;19977;-73
2024/04/04 05:26:28;;;;;;;;;;;;;;;9.18;100.00;96135.53;5063314;28;19964;-76
2024/04/04 05:28:55;;;;;;;;;;;;;;;9.37;100.00;96124.03;5045602;28;20222;-72
2024/04/04 05:31:22;;;;;;;;;;;;;;;9.52;100.00;96119.22;5045571;28;19938;-71
2024/04/04 05:33:47;;;;;;;;;;;;;;;9.58;100.00;96130.66;5061926;28;20159;-72
2024/04/04 05:36:13;;;;;;;;;;;;;;;9.57;100.00;96128.25;5046114;28;19980;-71
2024/04/04 05:38:39;;;;;;;;;;;;;;;9.59;100.00;96128.84;5046014;28;19945;-71
2024/04/04 05:41:07;;;;;;;;;;;;;;;9.57;100.00;96130.88;5045576;28;19987;-71
2024/04/04 05:43:33;;;;;;;;;;;;;;;9.55;100.00;96131.91;5033222;28;20204;-76
2024/04/04 05:45:59;;;;;;;;;;;;;;;9.59;100.00;96136.69;5048972;28;19939;-72
2024/04/04 05:48:25;;;;;;;;;;;;;;;10.00;100.00;96127.34;5049489;28;19996;-73
2024/04/04 05:50:55;;;;;;;;;;;;;;;10.22;100.00;96131.03;5066590;28;20250;-72
2024/04/04 05:53:21;;;;;;;;;;;;;;;10.25;100.00;96125.38;5066584;28;19939;-73
2024/04/04 05:55:47;;;;;;;;;;;;;;;10.49;100.00;96122.84;5066744;28;20036;-73
2024/04/04 05:58:12;;;;;;;;;;;;;;;10.68;100.00;96123.56;5066527;28;19934;-73
2024/04/04 06:00:38;;;;;;;;;;;;;;;11.11;100.00;96123.25;5066373;28;19968;-73
2024/04/04 06:03:04;;;;;;;;;;;;;;;11.82;100.00;96117.84;5049232;28;19939;-71
2024/04/04 06:05:30;;;;;;;;;;;;;;;12.53;100.00;96102.56;5048627;28;19942;-86
2024/04/04 06:07:56;;;;;;;;;;;;;;;13.14;100.00;96094.00;5066238;28;19962;-85
2024/04/04 06:10:22;;;;;;;;;;;;;;;13.62;100.00;96078.59;5049324;28;19941;-80
2024/04/04 06:12:47;;;;;;;;;;;;;;;13.94;100.00;96055.75;5066214;28;20229;-81
2024/04/04 06:15:13;;;;;;;;;;;;;;;14.19;100.00;96052.56;5066207;28;19944;-83
2024/04/04 06:17:40;;;;;;;;;;;;;;;14.30;100.00;96050.00;5066930;28;19940;-83
2024/04/04 06:20:06;;;;;;;;;;;;;;;13.96;100.00;96044.94;5048121;28;19950;-80
2024/04/04 06:22:32;;;;;;;;;;;;;;;13.43;100.00;96075.47;5048404;28;19974;-72
2024/04/04 06:24:58;;;;;;;;;;;;;;;12.90;100.00;96101.31;5065831;28;19965;-72
2024/04/04 06:27:24;;;;;;;;;;;;;;;12.46;100.00;96117.72;5066498;28;19943;-73
2024/04/04 06:29:50;;;;;;;;;;;;;;;12.18;100.00;96129.88;5048794;28;19941;-74
2024/04/04 06:32:15;;;;;;;;;;;;;;;12.23;100.00;96121.28;5065882;28;19951;-73
2024/04/04 06:34:41;;;;;;;;;;;;;;;12.51;100.00;96117.81;5065843;28;19933;-73
2024/04/04 06:37:07;;;;;;;;;;;;;;;12.89;100.00;96112.88;5065770;28;19942;-73
2024/04/04 06:39:34;;;;;;;;;;;;;;;12.94;100.00;96094.53;5066260;28;19957;-73
2024/04/04 06:41:59;;;;;;;;;;;;;;;13.16;100.00;96102.47;5065630;28;20103;-77
2024/04/04 06:44:25;;;;;;;;;;;;;;;13.50;100.00;96091.88;5066495;28;19933;-79
2024/04/04 06:46:51;;;;;;;;;;;;;;;13.85;100.00;96072.25;5065545;28;20121;-79
2024/04/04 06:49:17;;;;;;;;;;;;;;;13.78;100.00;96062.69;5066317;28;20284;-79
2024/04/04 06:51:43;;;;;;;;;;;;;;;13.43;100.00;96094.69;5065799;28;19940;-77
2024/04/04 06:54:09;;;;;;;;;;;;;;;13.07;100.00;96106.56;5047170;28;19934;-77
2024/04/04 06:56:35;;;;;;;;;;;;;;;12.99;100.00;96105.91;5065438;28;20130;-84
2024/04/04 06:59:01;;;;;;;;;;;;;;;13.24;100.00;96107.31;5065356;28;19943;-68
2024/04/04 07:01:29;;;;;;;;;;;;;;;13.48;100.00;96094.78;5064834;28;19966;-73
2024/04/04 07:03:56;;;;;;;;;;;;;;;13.84;100.00;96100.47;5066017;28;20150;-73
2024/04/04 07:06:22;;;;;;;;;;;;;;;14.17;100.00;96070.47;5065245;28;20131;-73
2024/04/04 07:08:50;;;;;;;;;;;;;;;14.37;100.00;96059.31;5064611;28;20438;-74
2024/04/04 07:11:16;;;;;;;;;;;;;;;14.22;100.00;96072.38;5047386;28;19945;-73
2024/04/04 07:13:42;;;;;;;;;;;;;;;13.88;100.00;96080.47;5064997;28;19939;-73
2024/04/04 07:16:07;;;;;;;;;;;;;;;13.69;100.00;96095.81;5065301;28;19985;-76
2024/04/04 07:18:34;;;;;;;;;;;;;;;13.40;100.00;96103.09;5064964;28;20134;-68
2024/04/04 07:21:00;;;;;;;;;;;;;;;13.17;100.00;96123.28;5065615;28;19958;-68
2024/04/04 07:23:26;;;;;;;;;;;;;;;12.95;100.00;96130.34;5065123;28;19973;-68
2024/04/04 07:25:53;;;;;;;;;;;;;;;12.74;100.00;96131.84;5065396;28;19941;-69
2024/04/04 07:28:19;;;;;;;;;;;;;;;12.53;100.00;96155.19;5047741;28;20149;-68
2024/04/04 07:30:45;;;;;;;;;;;;;;;12.34;100.00;96146.69;5065238;28;19942;-69
2024/04/04 07:33:11;;;;;;;;;;;;;;;12.22;100.00;96174.09;5064687;28;20133;-69
2024/04/04 07:35:37;;;;;;;;;;;;;;;12.10;100.00;96187.28;5046808;28;19951;-77
2024/04/04 07:38:05;;;;;;;;;;;;;;;11.94;100.00;96184.34;5065375;28;19944;-71
2024/04/04 07:40:38;;;;;;;;;;;;;;;11.82;100.00;96193.25;5064525;28;19960;-70
2024/04/04 07:43:05;;;;;;;;;;;;;;;11.68;100.00;96187.47;5063296;28;19945;-70
2024/04/04 07:45:31;;;;;;;;;;;;;;;11.60;100.00;96195.69;5064468;28;20229;-70
2024/04/04 07:47:57;;;;;;;;;;;;;;;11.50;100.00;96197.06;5064402;28;20007;-70
2024/04/04 07:50:23;;;;;;;;;;;;;;;11.44;100.00;96195.34;5065141;28;19939;-70
2024/04/04 07:52:51;;;;;;;;;;;;;;;11.41;100.00;96205.53;5064337;28;20005;-73
2024/04/04 07:55:17;;;;;;;;;;;;;;;11.38;100.00;96206.75;5064351;28;19944;-71
2024/04/04 07:57:43;;;;;;;;;;;;;;;11.31;100.00;96201.63;5047195;28;19950;-71
2024/04/04 08:00:11;;;;;;;;;;;;;;;11.25;100.00;96204.38;5046473;28;20000;-71
2024/04/04 08:02:37;;;;;;;;;;;;;;;11.18;100.00;96213.16;5063975;28;20271;-71
2024/04/04 08:05:04;;;;;;;;;;;;;;;11.12;100.00;96203.56;5045447;28;19952;-71
2024/04/04 08:07:35;;;;;;;;;;;;;;;11.08;100.00;96214.75;5064025;28;19939;-71
2024/04/04 08:10:03;;;;;;;;;;;;;;;11.00;100.00;96210.63;5064063;28;19957;-69
2024/04/04 08:12:29;;;;;;;;;;;;;;;10.97;100.00;96208.44;5046192;28;20138;-82
2024/04/04 08:14:55;;;;;;;;;;;;;;;10.96;100.00;96212.91;5046918;28;19937;-78
2024/04/04 08:17:21;;;;;;;;;;;;;;;10.99;100.00;96213.47;5064508;28;19967;-78
2024/04/04 08:19:47;;;;;;;;;;;;;;;11.00;100.00;96212.44;5063927;28;19983;-78
2024/04/04 08:22:13;;;;;;;;;;;;;;;11.00;100.00;96215.84;5063800;28;19967;-78
2024/04/04 08:24:39;;;;;;;;;;;;;;;11.03;100.00;96209.38;5046203;28;19967;-78
2024/04/04 08:27:05;;;;;;;;;;;;;;;11.05;100.00;96210.75;5064373;28;19964;-78
2024/04/04 08:29:31;;;;;;;;;;;;;;;11.09;100.00;96211.91;5063915;28;20058;-73
2024/04/04 08:31:57;;;;;;;;;;;;;;;11.13;100.00;96205.16;5063812;28;19940;-72
2024/04/04 08:34:23;;;;;;;;;;;;;;;11.16;100.00;96211.78;5046650;28;19946;-71
2024/04/04 08:36:49;;;;;;;;;;;;;;;11.20;100.00;96204.25;5045851;28;19941;-72
2024/04/04 08:39:14;;;;;;;;;;;;;;;11.23;100.00;96203.78;5064261;28;19943;-72
2024/04/04 08:41:41;;;;;;;;;;;;;;;11.25;100.00;96205.16;5045830;28;20148;-72
2024/04/04 08:44:08;;;;;;;;;;;;;;;11.29;100.00;96203.69;5063525;28;19938;-72
2024/04/04 08:46:34;;;;;;;;;;;;;;;11.32;100.00;96198.00;5063711;28;20104;-82
2024/04/04 08:49:01;;;;;;;;;;;;;;;11.35;100.00;96201.97;5063880;28;19966;-69
2024/04/04 08:51:27;;;;;;;;;;;;;;;11.39;100.00;96195.25;5063581;28;19947;-77
2024/04/04 08:53:53;;;;;;;;;;;;;;;11.45;100.00;96193.53;5063758;28;19942;-78
2024/04/04 08:56:18;;;;;;;;;;;;;;;11.51;100.00;96195.25;5046259;28;19965;-79
2024/04/04 08:58:44;;;;;;;;;;;;;;;11.55;100.00;96184.06;5063531;28;19943;-80
2024/04/04 09:01:10;;;;;;;;;;;;;;;11.65;100.00;96199.22;5045721;28;19975;-81
2024/04/04 09:03:41;;;;;;;;;;;;;;;11.69;100.00;96189.84;5064290;28;19943;-81
2024/04/04 09:06:07;;;;;;;;;;;;;;;11.71;100.00;96189.63;5064293;28;19937;-70
2024/04/04 09:08:35;;;;;;;;;;;;;;;11.74;100.00;96200.47;5046302;28;19949;-68
2024/04/04 09:11:01;;;;;;;;;;;;;;;11.75;100.00;96194.16;5029106;28;19935;-68
2024/04/04 09:13:29;;;;;;;;;;;;;;;11.76;100.00;96198.41;5045639;28;20231;-68
2024/04/04 09:16:02;;;;;;;;;;;;;;;11.85;100.00;96200.69;5063360;28;20137;-69
2024/04/04 09:18:28;;;;;;;;;;;;;;;12.00;100.00;96200.22;5068120;28;19944;-68
2024/04/04 09:20:54;;;;;;;;;;;;;;;12.13;100.00;96194.69;5049639;28;20186;-68
2024/04/04 09:23:19;;;;;;;;;;;;;;;12.21;100.00;96204.84;5049003;28;20045;-68
2024/04/04 09:25:46;;;;;;;;;;;;;;;12.25;100.00;96197.28;5067647;28;19940;-74
2024/04/04 09:28:14;;;;;;;;;;;;;;;12.28;100.00;96194.97;5049325;28;20244;-77
2024/04/04 09:30:40;;;;;;;;;;;;;;;12.30;100.00;96200.00;5065851;28;19960;-77
2024/04/04 09:33:08;;;;;;;;;;;;;;;12.27;100.00;96203.13;5066949;28;19961;-77
2024/04/04 09:35:34;;;;;;;;;;;;;;;12.26;100.00;96209.38;5067099;28;19948;-77
2024/04/04 09:38:00;;;;;;;;;;;;;;;12.21;100.00;96201.41;5066898;28;19935;-78
2024/04/04 09:40:26;;;;;;;;;;;;;;;12.22;100.00;96195.94;5066852;28;19942;-77
2024/04/04 09:42:52;;;;;;;;;;;;;;;12.26;100.00;96194.41;5067386;28;19950;-81
2024/04/04 09:45:18;;;;;;;;;;;;;;;12.28;100.00;96200.22;5033114;28;19945;-68
2024/04/04 09:47:45;;;;;;;;;;;;;;;12.28;100.00;96205.50;5048777;28;19973;-68
2024/04/04 09:50:13;;;;;;;;;;;;;;;12.27;100.00;96218.88;5049685;28;19932;-68
2024/04/04 09:52:40;;;;;;;;;;;;;;;12.24;100.00;96222.78;5067323;28;20110;-68
2024/04/04 09:55:09;;;;;;;;;;;;;;;12.21;100.00;96235.59;5066568;28;19941;-68
2024/04/04 09:57:36;;;;;;;;;;;;;;;12.16;100.00;96223.94;5049284;28;19944;-68
2024/04/04 10:00:27;;;;;;;;;;;;;;;12.17;100.00;96220.28;5066454;28;19935;-70
2024/04/04 10:02:56;;;;;;;;;;;;;;;12.18;100.00;96221.09;5032716;28;19959;-70
2024/04/04 10:05:42;;;;;;;;;;;;;;;12.20;100.00;96221.66;5067145;28;19940;-71
2024/04/04 10:08:09;;;;;;;;;;;;;;;12.19;100.00;96227.94;5048352;28;19945;-70
2024/04/04 10:10:35;;;;;;;;;;;;;;;12.16;100.00;96220.53;5067027;28;19939;-70
2024/04/04 10:13:07;;;;;;;;;;;;;;;12.13;100.00;96218.34;5066787;28;19937;-70
2024/04/04 10:15:41;;;;;;;;;;;;;;;12.11;100.00;96225.66;5066163;28;19936;-70
2024/04/04 10:18:10;;;;;;;;;;;;;;;12.10;100.00;96218.81;5066603;28;19944;-71
2024/04/04 10:20:39;;;;;;;;;;;;;;;12.07;100.00;96220.06;5066967;28;19945;-68
2024/04/04 10:23:05;;;;;;;;;;;;;;;12.05;100.00;96224.75;5066557;28;19953;-70
2024/04/04 10:25:33;;;;;;;;;;;;;;;12.04;100.00;96223.19;5066572;28;19939;-70
2024/04/04 10:28:06;;;;;;;;;;;;;;;12.05;100.00;96232.63;5065514;28;19946;-71
2024/04/04 10:30:35;;;;;;;;;;;;;;;12.06;100.00;96233.47;5066748;28;19934;-71
2024/04/04 10:33:08;;;;;;;;;;;;;;;12.03;100.00;96231.28;5065771;28;19943;-70
2024/04/04 10:35:35;;;;;;;;;;;;;;;12.04;100.00;96241.56;5048081;28;19948;-71
2024/04/04 10:38:08;;;;;;;;;;;;;;;12.07;100.00;96238.47;5048857;28;20113;-74
2024/04/04 10:40:34;;;;;;;;;;;;;;;12.09;100.00;96230.34;5065704;28;19937;-84
2024/04/04 10:43:01;;;;;;;;;;;;;;;12.08;100.00;96232.19;5047797;28;19963;-83
2024/04/04 10:45:28;;;;;;;;;;;;;;;12.11;100.00;96220.41;5066222;28;19944;-83
2024/04/04 10:47:55;;;;;;;;;;;;;;;12.15;100.00;96211.81;5065604;28;19991;-83
2024/04/04 10:50:21;;;;;;;;;;;;;;;12.24;100.00;96201.75;5066119;28;19934;-83
2024/04/04 10:52:47;;;;;;;;;;;;;;;12.38;100.00;96191.75;5047992;28;20006;-83
2024/04/04 10:55:13;;;;;;;;;;;;;;;12.53;100.00;96193.84;5065475;28;19941;-69
2024/04/04 10:57:39;;;;;;;;;;;;;;;12.62;100.00;96194.25;5047961;28;19929;-70
2024/04/04 11:00:13;;;;;;;;;;;;;;;12.69;100.00;96187.81;5048258;28;19989;-74
2024/04/04 11:02:49;;;;;;;;;;;;;;;12.85;100.00;96193.34;5065783;28;20198;-74
2024/04/04 11:05:17;;;;;;;;;;;;;;;13.02;100.00;96188.06;5065288;28;19935;-74
2024/04/04 11:07:45;;;;;;;;;;;;;;;13.11;100.00;96186.66;5048149;28;19951;-74
2024/04/04 11:10:14;;;;;;;;;;;;;;;13.12;100.00;96189.06;5065817;28;19969;-74
2024/04/04 11:12:41;;;;;;;;;;;;;;;13.09;100.00;96183.47;5047942;28;20216;-74
2024/04/04 11:15:07;;;;;;;;;;;;;;;13.04;100.00;96193.91;5063813;28;20142;-81
2024/04/04 11:17:37;;;;;;;;;;;;;;;12.97;100.00;96200.13;5064988;28;19939;-73
2024/04/04 11:20:06;;;;;;;;;;;;;;;12.86;100.00;96201.00;5063771;28;19958;-73
2024/04/04 11:22:34;;;;;;;;;;;;;;;12.75;100.00;96197.41;5030452;28;19957;-73
2024/04/04 11:25:00;;;;;;;;;;;;;;;12.69;100.00;96213.34;5063568;28;19969;-73
2024/04/04 11:27:26;;;;;;;;;;;;;;;12.63;100.00;96209.81;5064876;28;20151;-72
2024/04/04 11:29:51;;;;;;;;;;;;;;;12.57;100.00;96208.91;5047739;28;20184;-73
2024/04/04 11:32:17;;;;;;;;;;;;;;;12.55;100.00;96205.72;5064771;28;19938;-86
2024/04/04 11:34:43;;;;;;;;;;;;;;;12.54;100.00;96211.25;5047554;28;19933;-72
2024/04/04 11:37:09;;;;;;;;;;;;;;;12.53;100.00;96215.69;5047762;28;20232;-84
2024/04/04 11:39:35;;;;;;;;;;;;;;;12.51;100.00;96209.84;5064391;28;19940;-84
2024/04/04 11:42:01;;;;;;;;;;;;;;;12.50;100.00;96218.00;5064452;28;19985;-84
2024/04/04 11:44:27;;;;;;;;;;;;;;;12.48;100.00;96228.75;5046898;28;19939;-82
2024/04/04 11:46:54;;;;;;;;;;;;;;;12.44;100.00;96222.38;5065029;28;20259;-83
2024/04/04 11:49:19;;;;;;;;;;;;;;;12.43;100.00;96228.66;5064406;28;20124;-82
2024/04/04 11:51:45;;;;;;;;;;;;;;;12.44;100.00;96225.00;5064402;28;19934;-76
2024/04/04 11:54:11;;;;;;;;;;;;;;;12.49;100.00;96240.06;5064859;28;19958;-76
2024/04/04 11:56:39;;;;;;;;;;;;;;;12.56;100.00;96238.91;5065105;28;20247;-76
2024/04/04 11:59:05;;;;;;;;;;;;;;;12.73;100.00;96232.88;5064249;28;19933;-75
2024/04/04 12:01:30;;;;;;;;;;;;;;;12.91;100.00;96229.22;5064898;28;19953;-75
2024/04/04 12:03:57;;;;;;;;;;;;;;;13.06;100.00;96231.31;5029954;28;19963;-76
2024/04/04 12:06:23;;;;;;;;;;;;;;;13.16;100.00;96226.22;5064929;28;19937;-75
2024/04/04 12:08:49;;;;;;;;;;;;;;;13.27;100.00;96245.59;5046179;28;19960;-74
2024/04/04 12:11:15;;;;;;;;;;;;;;;13.34;100.00;96241.03;5046270;28;19982;-74
2024/04/04 12:13:41;;;;;;;;;;;;;;;13.31;100.00;96234.41;5062909;28;19946;-70
2024/04/04 12:16:08;;;;;;;;;;;;;;;13.26;100.00;96231.63;5063887;28;19943;-69
2024/04/04 12:21:19;;;;;;;;;;;;;;;13.14;100.00;96242.25;5064395;28;19937;-70
2024/04/04 12:23:45;;;;;;;;;;;;;;;13.10;100.00;96259.56;5064289;28;20130;-70
2024/04/04 12:26:12;;;;;;;;;;;;;;;13.06;100.00;96241.84;5064364;28;19943;-70
2024/04/04 12:28:38;;;;;;;;;;;;;;;13.03;100.00;96245.75;5046630;28;19941;-81
2024/04/04 12:31:04;;;;;;;;;;;;;;;13.07;100.00;96238.97;5046856;28;19948;-69
2024/04/04 12:33:30;;;;;;;;;;;;;;;13.07;100.00;96238.19;5063772;28;19935;-69
2024/04/04 12:35:56;;;;;;;;;;;;;;;12.97;100.00;96228.28;5064512;28;19949;-70
2024/04/04 12:38:22;;;;;;;;;;;;;;;12.93;100.00;96229.78;5063752;28;19942;-69
2024/04/04 12:40:48;;;;;;;;;;;;;;;12.92;100.00;96218.47;5029456;28;19947;-69
2024/04/04 12:43:17;;;;;;;;;;;;;;;12.92;100.00;96204.53;5063885;28;19948;-70